Nearby METAR Reports

 

KIAG - Niagara Falls, New York, USA
Distance from station: W 12mi, 20km
Updated: 03/02/2021 1:53am
Overcast
Overcast
 Wind from NW
Wind: NW 18 mph , 30 km/h, Gust: 29 mph , 46 km/h
Temperature: 18°F , -8°C
Wind Chill: 2°F , -17°C
Dew Point: 3°F , -16°C
Humidity: 53%
Barometer: 1024.7 hPa
Clouds: Overcast
Visibility: 10 miles , 16 km
Cloud details: Overcast 4700 ft
2021/03/02 06:53 KIAG 020653Z AUTO 31016G25KT 10SM OVC047 M08/M16 A3026 RMK AO2 SLP265 T10831161
KBUF - Buffalo/Cheektow, New York, USA
Distance from station: S 13mi, 21km
Updated: 03/02/2021 1:54am
Partly cloudy
Partly cloudy
 Wind from WNW
Wind: WNW 20 mph , 31 km/h, Gust: 30 mph , 48 km/h
Temperature: 18°F , -8°C
Wind Chill: 2°F , -17°C
Dew Point: 3°F , -16°C
Humidity: 53%
Barometer: 1024.4 hPa
Clouds: Partly cloudy
Visibility: 10 miles , 16 km
Cloud details: Partly cloudy 4500 ft
Partly cloudy 6000 ft
2021/03/02 06:54 KBUF 020654Z 29017G26KT 10SM SCT045 SCT060 M08/M16 A3025 RMK AO2 PK WND 31026/0650 SLP254 T10781161 $
 
KROC - Rochester, New York, USA
Distance from station: E 51mi, 82km
Updated: 03/02/2021 1:54am
Blowing snow, Mostly cloudy
Blowing snow, Mostly cloudy
 Wind from NNW
Wind: NNW 17 mph , 28 km/h, Gust: 24 mph , 39 km/h
Temperature: 14°F , -10°C
Wind Chill: -2°F , -19°C
Dew Point: 5°F , -15°C
Humidity: 67%
Barometer: 1023 hPa
Summary: Blowing Snow
Clouds: Mostly cloudy
Visibility: 7 miles , 11 km
Cloud details: Mostly cloudy 3000 ft
Mostly cloudy 4700 ft
2021/03/02 06:54 KROC 020654Z 33015G21KT 7SM BLSN BKN030 BKN047 M10/M15 A3021 RMK AO2 PK WND 32028/0608 SNE52 SLP242 P0000 T11001150
CYSN - St. Catharines A, Ontario, Canada
Distance from station: WNW 25mi, 40km
Updated: 03/01/2021 9:00pm
NOT Current
Mostly cloudy
Mostly cloudy
 Wind from NNW
Wind: NNW 21 mph , 33 km/h, Gust: 36 mph , 57 km/h
Temperature: 21°F , -6°C
Wind Chill: 5°F , -15°C
Dew Point: 9°F , -13°C
Humidity: 58%
Barometer: 1021.3 hPa
Clouds: Mostly cloudy
Visibility: 15 miles , 24 km
Cloud details: Mostly cloudy 3500 ft
2021/03/02 02:00 CYSN 020200Z 33018G31KT 15SM BKN035 M06/M13 A3016 RMK SC5 LAST STFD OBS/NEXT 021200Z PRESRR SLP220
 
KOLE - Olean, New York, USA
Distance from station: SSE 63mi, 102km
Updated: 03/02/2021 1:55am
Light snow, Overcast
Light snow, Overcast
 Wind from WNW
Wind: WNW 13 mph , 20 km/h, Gust: 22 mph , 35 km/h
Temperature: 10°F , -12°C
Wind Chill: -5°F , -21°C
Dew Point: 5°F , -15°C
Humidity: 79%
Barometer: 1019.3 hPa
Summary: Light Snow
Clouds: Overcast
Visibility: 2 miles , 3 km
Cloud details: Partly cloudy 1500 ft
Mostly cloudy 2200 ft
Overcast 2900 ft
2021/03/02 06:55 KOLE 020655Z AUTO 29011G19KT 260V320 2SM -SN SCT015 BKN022 OVC029 M12/M15 A3010 RMK AO2
KJHW - Jamestown, New York, USA
Distance from station: SSW 74mi, 119km
Updated: 03/02/2021 1:56am
Overcast
Overcast
 
Barometer: 1022 hPa
Clouds: Overcast
Visibility: 10 miles , 16 km
Cloud details: Partly cloudy 3000 ft
Mostly cloudy 3700 ft
Overcast 4500 ft
2021/03/02 06:56 KJHW 020656Z AUTO 10SM SCT030 BKN037 OVC045 A3018 RMK AO2 SNE33 SLPNO P0000 FZRANO $
 
CWWZ - Port Weller (mar, Ontario, Canada
Distance from station: WNW 28mi, 45km
Updated: 03/02/2021 1:00am

 Wind from WNW
Wind: WNW 30 mph , 48 km/h, Gust: 37 mph , 59 km/h
Temperature: 21°F , -6°C
Wind Chill: 3°F , -16°C
Dew Point: 12°F , -11°C
Humidity: 68%
2021/03/02 06:00 CWWZ 020600Z AUTO 30026G32KT M06/M11 RMK AO1 PK WND 30037/0502 SLP257 T10611110 53020
CWPC - Port Colborne(Au, Ontario, Canada
Distance from station: WSW 33mi, 53km
Updated: 03/02/2021 1:00am

 Wind from NW
Wind: NW 20 mph , 31 km/h, Gust: 28 mph , 44 km/h
Temperature: 18°F , -8°C
Wind Chill: 2°F , -17°C
Dew Point: 5°F , -15°C
Humidity: 58%
2021/03/02 06:00 CWPC 020600Z AUTO 31017G24KT M08/M15 RMK AO1 PK WND 31026/0525 SLP258 T10841149 51023
 
CXVN - Vineland (au8), Ontario, Canada
Distance from station: W 36mi, 58km
Updated: 03/02/2021 1:00am

 Wind from NW
Wind: NW 15 mph , 24 km/h, Gust: 23 mph , 37 km/h
Temperature: 18°F , -8°C
Wind Chill: 4°F , -16°C
Dew Point: 3°F , -16°C
Humidity: 53%
2021/03/02 06:00 CXVN 020600Z AUTO 31013G20KT M08/M16 RMK AO1 PK WND 30024/0504 SLP255 T10781155 51021
CYTZ - Toronto Il Vor, Ontario, Canada
Distance from station: NW 50mi, 81km
Updated: 03/02/2021 1:00am
Clear
Clear
 Wind from NW
Wind: NW 8 mph , 13 km/h
Temperature: 16°F , -9°C
Wind Chill: 5°F , -15°C
Dew Point: -0°F , -18°C
Humidity: 48%
Barometer: 1024.4 hPa
Clouds: Clear
Visibility: 9 miles , 14 km
2021/03/02 06:00 CYTZ 020600Z AUTO 32007KT 9SM CLR M09/M18 A3025 RMK SLP252
 
CXTO - Toronto City, Ontario, Canada
Distance from station: NW 52mi, 84km
Updated: 03/02/2021 1:00am

 
Temperature: 16°F , -9°C
Dew Point: 1°F , -17°C
Humidity: 53%
2021/03/02 06:00 CXTO 020600Z AUTO M09/M17 RMK AO1 SLP246 T10941170 51026
KDKK - Dunkirk, New York, USA
Distance from station: SW 52mi, 84km
Updated: 03/02/2021 1:53am
Overcast
Overcast
 Wind from NW
Wind: NW 18 mph , 30 km/h, Gust: 24 mph , 39 km/h
Temperature: 21°F , -6°C
Wind Chill: 6°F , -14°C
Dew Point: 9°F , -13°C
Humidity: 58%
Barometer: 1025.4 hPa
Clouds: Overcast
Visibility: 10 miles , 16 km
Cloud details: Mostly cloudy 3500 ft
Overcast 4500 ft
2021/03/02 06:53 KDKK 020653Z AUTO 32016G21KT 10SM BKN035 OVC045 M06/M13 A3028 RMK AO2 SNB35E44 SLP263 P0000 T10611128
 
CYOO - Oshawa, Ontario, Canada
Distance from station: N 56mi, 90km
Updated: 03/02/2021 1:00am
Clear
Clear
 Wind from NW
Wind: NW 12 mph , 19 km/h, Gust: 17 mph , 28 km/h
Temperature: 9°F , -13°C
Wind Chill: -6°F , -21°C
Dew Point: -6°F , -21°C
Humidity: 51%
Barometer: 1023.7 hPa
Clouds: Clear
Visibility: 9 miles , 14 km
2021/03/02 06:00 CYOO 020600Z AUTO 32010G15KT 9SM CLR M13/M21 A3023 RMK SLP248
CWWB - Burlington Piers, Ontario, Canada
Distance from station: WNW 56mi, 91km
Updated: 03/02/2021 1:00am

 Wind from WNW
Wind: WNW 9 mph , 15 km/h
Temperature: 16°F , -9°C
Wind Chill: 5°F , -15°C
Dew Point: 3°F , -16°C
Humidity: 57%
2021/03/02 06:00 CWWB 020600Z AUTO 29008KT M09/M16 RMK AO1 SLP262 T10871158 51026
 
CYYZ - Toronto/Pearson, Ontario, Canada
Distance from station: NW 60mi, 96km
Updated: 03/02/2021 1:00am
Few Clouds
Few Clouds
 Wind from NW
Wind: NW 15 mph , 24 km/h, Gust: 26 mph , 43 km/h
Temperature: 14°F , -10°C
Wind Chill: -1°F , -18°C
Dew Point: -4°F , -20°C
Humidity: 44%
Barometer: 1023.7 hPa
Clouds: Few Clouds
Visibility: 15 miles , 24 km
Cloud details: Few Clouds 4500 ft
2021/03/02 06:00 CYYZ 020600Z 31013G23KT 15SM FEW045 M10/M20 A3023 RMK SC2 SLP248
CYKZ - Toronto Buttonvi, Ontario, Canada
Distance from station: NW 62mi, 99km
Updated: 01/03/2019 4:00am
NOT Current
Partly cloudy
Partly cloudy
 Wind from WSW
Wind: WSW 5 mph , 7 km/h
Temperature: 27°F , -3°C
Wind Chill: 21°F , -6°C
Dew Point: 23°F , -5°C
Humidity: 86%
Barometer: 1010.8 hPa
Clouds: Partly cloudy
Visibility: 15 miles , 24 km
Cloud details: Partly cloudy 4000 ft
2019/01/03 09:00 CYKZ 030900Z 25004KT 15SM SCT040 M03/M05 A2985 RMK SC3 LAST STFD OBS FAREWELL SLP118
 
CXHM - Hamilton Rbg Cs, Ontario, Canada
Distance from station: W 62mi, 100km
Updated: 03/02/2021 1:00am

 Wind from NW
Wind: NW 5 mph , 7 km/h
Temperature: 16°F , -9°C
Wind Chill: 8°F , -13°C
Dew Point: 7°F , -14°C
Humidity: 67%
2021/03/02 06:00 CXHM 020600Z AUTO 31004KT M09/M14 RMK AO1 1024 SLP264 T10911135 50003
KDSV - Dansville, New York, USA
Distance from station: SE 62mi, 100km
Updated: 03/02/2021 1:54am
Partly cloudy
Partly cloudy
 Wind from NW
Wind: NW 14 mph , 22 km/h, Gust: 23 mph , 37 km/h
Temperature: 18°F , -8°C
Wind Chill: 4°F , -16°C
Dew Point: 1°F , -17°C
Humidity: 49%
Barometer: 1023 hPa
Clouds: Partly cloudy
Visibility: 10 miles , 16 km
Cloud details: Partly cloudy 4900 ft
2021/03/02 06:54 KDSV 020654Z AUTO 31012G20KT 10SM SCT049 M08/M17 A3021 RMK AO2 PK WND 32027/0556 SLP247 T10831167
 
CYHM - Hamilton Airport, Ontario, Canada
Distance from station: W 63mi, 101km
Updated: 03/02/2021 1:00am
Light snow, Mostly cloudy
Light snow, Mostly cloudy
 Wind from NNW
Wind: NNW 10 mph , 17 km/h
Temperature: 14°F , -10°C
Wind Chill: 1°F , -17°C
Dew Point: 9°F , -13°C
Humidity: 79%
Barometer: 1024 hPa
Summary: Light Snow
Clouds: Mostly cloudy
Visibility: 15 miles , 24 km
Cloud details: Few Clouds 2300 ft
Mostly cloudy 4200 ft
2021/03/02 06:00 CYHM 020600Z 34009KT 15SM -SN FEW023 BKN042 M10/M13 A3024 RMK SC2SC5 SLP257
CWNC - Cobourg (mars), Ontario, Canada
Distance from station: NNE 63mi, 102km
Updated: 03/02/2021 1:00am

 Wind from NNW
Wind: NNW 14 mph , 22 km/h, Gust: 29 mph , 46 km/h
Temperature: 9°F , -13°C
Wind Chill: -7°F , -22°C
Dew Point: -11°F , -24°C
Humidity: 39%
2021/03/02 06:00 CWNC 020600Z AUTO 33012G25KT M13/M24 RMK AO1 SOG 02 3031 PK WND 33025/0559 SLP236 T11311237 50002